Time;durP1;ratioP1;P1;durP2;ratioP2;P2;SDS_P1;SDS_P2;PMS_P1;PMS_P2;Temp;Humidity;BMP_temperature;BMP_pressure;BME280_temperature;BME280_humidity;BME280_pressure;Samples;Min_cycle;Max_cycle;Signal;HPM_P1;HPM_P2
2023/12/30 00:01:03;;;;;;;11.90;3.72;;;;;;;6.01;100.00;100794.59;5005356;28;20042;-81
2023/12/30 00:03:29;;;;;;;12.38;3.55;;;;;;;6.01;100.00;100800.72;5005332;28;20038;-80
2023/12/30 00:05:54;;;;;;;11.35;3.47;;;;;;;6.03;100.00;100805.97;5007494;28;20113;-77
2023/12/30 00:08:19;;;;;;;19.27;4.43;;;;;;;6.08;100.00;100810.19;5008674;28;20034;-79
2023/12/30 00:10:45;;;;;;;15.73;4.43;;;;;;;5.97;100.00;100807.03;5008088;28;20045;-81
2023/12/30 00:13:10;;;;;;;15.20;3.53;;;;;;;5.98;100.00;100816.69;5004354;28;20038;-77
2023/12/30 00:15:35;;;;;;;13.82;4.35;;;;;;;5.94;100.00;100810.66;5003887;28;20065;-79
2023/12/30 00:18:01;;;;;;;10.45;3.53;;;;;;;5.94;100.00;100821.22;5005514;28;20033;-80
2023/12/30 00:20:26;;;;;;;10.70;3.03;;;;;;;5.96;100.00;100819.38;5005153;28;20060;-76
2023/12/30 00:22:52;;;;;;;9.95;3.67;;;;;;;5.99;100.00;100816.66;5003086;28;20033;-81
2023/12/30 00:25:17;;;;;;;15.68;3.83;;;;;;;6.01;100.00;100831.56;5003381;28;20108;-79
2023/12/30 00:27:42;;;;;;;12.02;3.75;;;;;;;5.97;100.00;100818.44;5003194;28;20034;-79
2023/12/30 00:30:10;;;;;;;14.32;3.55;;;;;;;5.95;100.00;100835.28;4993123;28;20152;-78
2023/12/30 00:32:36;;;;;;;11.75;3.42;;;;;;;5.91;100.00;100839.78;5001557;28;20375;-81
2023/12/30 00:35:01;;;;;;;10.98;3.60;;;;;;;5.91;100.00;100837.13;5001008;28;20088;-79
2023/12/30 00:37:27;;;;;;;12.90;3.47;;;;;;;5.85;100.00;100834.69;5003755;28;20067;-75
2023/12/30 00:39:53;;;;;;;14.18;3.25;;;;;;;5.81;100.00;100835.69;5012881;28;20037;-82
2023/12/30 00:42:19;;;;;;;13.45;3.53;;;;;;;5.84;100.00;100834.72;5008504;28;20049;-81
2023/12/30 00:44:44;;;;;;;13.27;3.45;;;;;;;5.81;100.00;100848.00;5007658;28;20117;-79
2023/12/30 00:47:11;;;;;;;15.52;3.75;;;;;;;5.88;100.00;100862.78;5008547;28;20033;-77
2023/12/30 00:49:36;;;;;;;10.52;3.40;;;;;;;5.82;100.00;100860.34;5006530;28;20026;-80
2023/12/30 00:52:02;;;;;;;12.63;3.80;;;;;;;5.80;100.00;100855.06;5005999;28;20048;-77
2023/12/30 00:54:28;;;;;;;16.17;3.92;;;;;;;5.87;100.00;100864.56;5004415;28;20034;-79
2023/12/30 00:56:53;;;;;;;14.40;3.50;;;;;;;5.92;100.00;100860.00;5005657;28;20188;-79
2023/12/30 00:59:19;;;;;;;15.00;3.80;;;;;;;5.90;100.00;100867.09;4999501;28;20288;-80
2023/12/30 01:01:44;;;;;;;13.90;4.05;;;;;;;5.82;100.00;100863.84;5004177;28;20570;-81
2023/12/30 01:04:09;;;;;;;17.13;4.53;;;;;;;5.80;100.00;100876.22;5006030;28;20121;-78
2023/12/30 01:06:35;;;;;;;17.40;4.38;;;;;;;5.80;100.00;100872.72;5004551;28;20098;-81
2023/12/30 01:09:00;;;;;;;14.95;4.30;;;;;;;5.82;100.00;100879.69;5006325;28;20057;-80
2023/12/30 01:11:26;;;;;;;15.95;4.47;;;;;;;5.84;100.00;100883.13;5005953;28;20069;-77
2023/12/30 01:13:51;;;;;;;13.18;4.25;;;;;;;5.85;100.00;100874.31;5004311;28;20284;-82
2023/12/30 01:16:20;;;;;;;12.27;3.72;;;;;;;5.91;100.00;100875.88;5006184;28;20104;-80
2023/12/30 01:18:45;;;;;;;15.32;4.20;;;;;;;5.94;100.00;100876.69;5006010;28;20062;-79
2023/12/30 01:21:11;;;;;;;17.25;4.30;;;;;;;5.90;100.00;100872.38;5004316;28;20037;-80
2023/12/30 01:23:36;;;;;;;11.07;4.05;;;;;;;5.92;100.00;100883.78;5004641;28;20034;-80
2023/12/30 01:26:01;;;;;;;14.15;3.97;;;;;;;5.94;100.00;100881.97;5004314;28;20056;-82
2023/12/30 01:28:27;;;;;;;16.38;4.40;;;;;;;5.96;100.00;100896.00;5002861;28;20072;-81
2023/12/30 01:30:52;;;;;;;10.23;3.70;;;;;;;5.97;100.00;100895.06;5002099;28;20126;-80
2023/12/30 01:33:18;;;;;;;12.30;4.35;;;;;;;5.99;100.00;100906.47;5005376;28;20461;-76
2023/12/30 01:35:43;;;;;;;15.82;4.65;;;;;;;6.02;100.00;100916.09;5005689;28;20052;-80
2023/12/30 01:38:08;;;;;;;18.52;4.70;;;;;;;6.04;100.00;100913.41;5000788;28;20041;-77
2023/12/30 01:40:34;;;;;;;17.33;4.43;;;;;;;5.92;100.00;100897.00;4997911;28;20219;-80
2023/12/30 01:43:02;;;;;;;21.05;5.53;;;;;;;6.05;100.00;100915.97;5002401;28;20052;-80
2023/12/30 01:45:28;;;;;;;16.40;4.10;;;;;;;6.09;100.00;100912.31;4999466;28;20140;-78
2023/12/30 01:47:54;;;;;;;15.38;4.70;;;;;;;6.05;100.00;100908.06;5002090;28;20041;-80
2023/12/30 01:50:21;;;;;;;15.23;4.63;;;;;;;6.01;100.00;100895.84;5001949;28;20532;-79
2023/12/30 01:52:47;;;;;;;17.27;4.50;;;;;;;6.13;100.00;100921.88;5007733;28;20108;-82
2023/12/30 01:55:14;;;;;;;18.50;4.70;;;;;;;6.15;100.00;100912.16;4999621;28;20065;-81
2023/12/30 01:57:40;;;;;;;13.48;3.70;;;;;;;6.07;100.00;100908.03;5000453;28;20061;-78
2023/12/30 02:00:06;;;;;;;16.05;4.00;;;;;;;6.11;100.00;100921.09;4994849;28;20096;-82
2023/12/30 02:02:31;;;;;;;13.98;4.15;;;;;;;6.04;100.00;100916.03;5001209;28;20492;-79
2023/12/30 02:04:57;;;;;;;13.35;3.70;;;;;;;6.10;100.00;100918.47;5011514;28;20026;-80
2023/12/30 02:07:22;;;;;;;14.43;3.60;;;;;;;6.03;100.00;100901.97;5003203;28;20547;-81
2023/12/30 02:09:50;;;;;;;16.92;4.50;;;;;;;6.08;100.00;100934.38;5002653;28;20038;-78
2023/12/30 02:12:16;;;;;;;11.43;3.53;;;;;;;6.01;100.00;100935.47;5004669;28;20247;-83
2023/12/30 02:14:41;;;;;;;20.23;3.80;;;;;;;5.93;100.00;100927.78;5004967;28;20443;-82
2023/12/30 02:17:06;;;;;;;17.25;4.15;;;;;;;5.93;100.00;100921.63;5005033;28;20096;-79
2023/12/30 02:19:33;;;;;;;16.23;4.13;;;;;;;5.85;100.00;100913.94;5005426;28;20475;-81
2023/12/30 02:21:58;;;;;;;23.30;4.57;;;;;;;5.83;100.00;100923.66;5005727;28;20160;-80
2023/12/30 02:24:24;;;;;;;18.55;4.18;;;;;;;5.78;100.00;100927.38;5003816;28;20547;-83
2023/12/30 02:26:49;;;;;;;15.13;4.55;;;;;;;5.67;100.00;100919.75;5006087;28;20056;-78
2023/12/30 02:29:15;;;;;;;13.25;3.90;;;;;;;5.79;100.00;100935.22;5004023;28;20408;-79
2023/12/30 02:31:46;;;;;;;20.52;5.78;;;;;;;5.82;100.00;100939.56;5005279;28;20033;-81
2023/12/30 02:34:21;;;;;;;16.10;5.15;;;;;;;5.86;100.00;100943.84;5009291;28;20030;-83
2023/12/30 02:36:47;;;;;;;17.77;4.65;;;;;;;5.92;100.00;100935.75;5007634;28;20065;-78
2023/12/30 02:39:12;;;;;;;18.05;4.65;;;;;;;5.88;100.00;100940.22;5008684;28;20149;-82
2023/12/30 02:41:38;;;;;;;17.65;4.45;;;;;;;5.92;100.00;100946.34;5007019;28;20587;-80
2023/12/30 02:44:04;;;;;;;14.15;4.93;;;;;;;5.92;100.00;100955.13;5007274;28;20096;-81
2023/12/30 02:46:30;;;;;;;16.13;5.15;;;;;;;5.94;100.00;100949.81;5000779;28;20038;-82
2023/12/30 02:48:57;;;;;;;16.55;4.82;;;;;;;5.85;100.00;100934.19;5008078;28;20030;-81
2023/12/30 02:51:23;;;;;;;12.13;4.47;;;;;;;5.99;100.00;100945.25;5007255;28;20190;-81
2023/12/30 02:53:48;;;;;;;13.00;3.80;;;;;;;5.82;100.00;100919.31;5010805;28;20212;-77
2023/12/30 02:56:22;;;;;;;12.98;4.32;;;;;;;5.93;100.00;100951.56;5008054;28;20408;-81
2023/12/30 02:58:58;;;;;;;15.50;4.38;;;;;;;5.87;100.00;100953.50;5002732;28;20507;-75
2023/12/30 03:01:25;;;;;;;19.15;4.25;;;;;;;5.85;100.00;100956.19;5005886;28;20059;-82
2023/12/30 03:03:52;;;;;;;17.65;4.18;;;;;;;5.75;100.00;100950.31;5004640;28;20038;-78
2023/12/30 03:06:18;;;;;;;11.27;4.05;;;;;;;5.64;100.00;100940.94;5005184;28;20046;-75
2023/12/30 03:08:43;;;;;;;10.82;3.72;;;;;;;5.68;100.00;100948.75;5005131;28;20456;-79
2023/12/30 03:11:09;;;;;;;11.57;3.60;;;;;;;5.74;100.00;100958.28;4986902;28;20089;-79
2023/12/30 03:13:35;;;;;;;17.23;3.88;;;;;;;5.58;100.00;100943.78;5003878;28;20041;-80
2023/12/30 03:16:00;;;;;;;13.43;3.90;;;;;;;5.61;100.00;100962.19;4999727;28;20053;-78
2023/12/30 03:18:25;;;;;;;14.40;3.72;;;;;;;5.60;100.00;100957.78;5004820;28;20574;-78
2023/12/30 03:20:51;;;;;;;11.70;3.80;;;;;;;5.60;100.00;100949.88;5006402;28;20049;-80
2023/12/30 03:23:16;;;;;;;11.82;3.60;;;;;;;5.62;100.00;100958.63;5006405;28;20029;-78
2023/12/30 03:25:42;;;;;;;14.00;4.00;;;;;;;5.57;100.00;100969.31;5004460;28;21016;-80
2023/12/30 03:28:07;;;;;;;13.18;3.40;;;;;;;5.57;100.00;100963.19;5005744;28;20508;-82
2023/12/30 03:30:33;;;;;;;17.17;3.33;;;;;;;5.63;100.00;100976.19;5001629;28;20040;-85
2023/12/30 03:32:58;;;;;;;14.82;4.00;;;;;;;5.64;100.00;100957.69;5009531;28;20069;-78
2023/12/30 03:35:23;;;;;;;12.95;3.70;;;;;;;5.65;100.00;100940.06;5013244;28;20041;-78
2023/12/30 03:37:49;;;;;;;16.92;4.00;;;;;;;5.83;100.00;100965.06;5009521;28;20034;-76
2023/12/30 03:40:14;;;;;;;10.90;3.55;;;;;;;5.82;100.00;100956.28;5004044;28;20038;-79
2023/12/30 03:42:39;;;;;;;13.38;3.00;;;;;;;5.84;100.00;100972.94;5005233;28;20033;-82
2023/12/30 03:45:05;;;;;;;13.57;3.88;;;;;;;5.77;100.00;100967.88;4998598;28;20089;-77
2023/12/30 03:47:31;;;;;;;11.85;3.28;;;;;;;5.72;100.00;100966.22;5002642;28;20518;-83
2023/12/30 03:49:56;;;;;;;14.73;3.50;;;;;;;5.74;100.00;100974.13;5003140;28;20037;-80
2023/12/30 03:52:21;;;;;;;17.48;3.85;;;;;;;5.71;100.00;100974.22;4999246;28;20127;-81
2023/12/30 03:54:51;;;;;;;13.07;3.58;;;;;;;5.64;100.00;100968.25;5007498;28;20559;-83
2023/12/30 03:57:16;;;;;;;18.35;4.18;;;;;;;5.52;100.00;100958.03;5004550;28;20041;-82
2023/12/30 03:59:42;;;;;;;19.00;4.20;;;;;;;5.50;100.00;100971.25;4998778;28;20041;-79
2023/12/30 04:02:07;;;;;;;9.38;3.00;;;;;;;5.49;100.00;100968.66;5003080;28;20290;-81
2023/12/30 04:04:33;;;;;;;16.48;3.30;;;;;;;5.51;100.00;100969.47;5002144;28;20531;-81
2023/12/30 04:06:58;;;;;;;11.85;3.97;;;;;;;5.49;100.00;100958.97;5003711;28;20041;-81
2023/12/30 04:09:23;;;;;;;16.52;3.50;;;;;;;5.47;100.00;100960.78;5002217;28;20101;-82
2023/12/30 04:11:49;;;;;;;18.42;4.25;;;;;;;5.45;100.00;100967.03;5001909;28;20416;-82
2023/12/30 04:14:14;;;;;;;19.13;4.00;;;;;;;5.46;100.00;100966.97;5002685;28;20043;-83
2023/12/30 04:16:39;;;;;;;17.55;3.95;;;;;;;5.46;100.00;100969.63;4983803;28;20042;-82
2023/12/30 04:19:05;;;;;;;13.65;3.30;;;;;;;5.45;100.00;100973.16;5002714;28;20046;-79
2023/12/30 04:21:30;;;;;;;16.55;4.13;;;;;;;5.44;100.00;100979.38;5001516;28;20060;-78
2023/12/30 04:23:55;;;;;;;15.25;4.20;;;;;;;5.38;100.00;100981.28;5001294;28;20041;-79
2023/12/30 04:26:21;;;;;;;15.02;3.88;;;;;;;5.42;100.00;100969.75;5001853;28;20049;-79
2023/12/30 04:28:46;;;;;;;13.60;4.32;;;;;;;5.41;100.00;100968.03;4997108;28;20026;-78
2023/12/30 04:31:11;;;;;;;19.38;3.90;;;;;;;5.39;100.00;100975.09;5002321;28;20044;-81
2023/12/30 04:33:37;;;;;;;19.42;4.47;;;;;;;5.37;100.00;100972.50;5001858;28;20033;-76
2023/12/30 04:36:02;;;;;;;13.98;4.43;;;;;;;5.34;100.00;100975.22;5003439;28;20390;-79
2023/12/30 04:38:28;;;;;;;14.13;3.63;;;;;;;5.30;100.00;100970.94;5002524;28;20526;-79
2023/12/30 04:40:55;;;;;;;15.93;4.18;;;;;;;5.29;100.00;100976.28;4996767;28;20033;-78
2023/12/30 04:43:20;;;;;;;20.80;3.88;;;;;;;5.33;100.00;100975.28;5002938;28;20069;-75
2023/12/30 04:45:45;;;;;;;15.38;3.72;;;;;;;5.29;100.00;100986.81;5002130;28;20119;-76
2023/12/30 04:48:11;;;;;;;13.88;4.07;;;;;;;5.25;100.00;100973.69;5002458;28;20040;-78
2023/12/30 04:50:36;;;;;;;20.67;4.50;;;;;;;5.23;100.00;100972.03;5002613;28;20528;-79
2023/12/30 04:53:01;;;;;;;13.23;4.00;;;;;;;5.24;100.00;100964.06;5002310;28;20045;-80
2023/12/30 04:55:27;;;;;;;17.60;3.92;;;;;;;5.25;100.00;100976.34;5002134;28;20385;-81
2023/12/30 04:57:52;;;;;;;15.98;4.00;;;;;;;5.19;100.00;100975.66;5001529;28;20067;-79
2023/12/30 05:00:21;;;;;;;15.48;3.90;;;;;;;5.21;100.00;100992.31;4996111;28;20029;-76
2023/12/30 05:02:46;;;;;;;15.10;4.25;;;;;;;5.19;100.00;100994.13;5001996;28;20042;-81
2023/12/30 05:05:12;;;;;;;16.75;4.03;;;;;;;5.14;100.00;100977.53;5001959;28;20044;-77
2023/12/30 05:07:37;;;;;;;14.50;3.95;;;;;;;5.19;100.00;101002.03;5002911;28;20220;-78
2023/12/30 05:10:03;;;;;;;15.73;4.30;;;;;;;5.15;100.00;101006.53;5005936;28;20069;-81
2023/12/30 05:12:28;;;;;;;19.75;4.88;;;;;;;5.18;100.00;101006.47;5007603;28;20100;-78
2023/12/30 05:14:54;;;;;;;16.13;4.40;;;;;;;5.06;100.00;100987.41;5004643;28;20029;-82
2023/12/30 05:17:20;;;;;;;14.95;4.15;;;;;;;5.23;100.00;101006.34;5001599;28;20283;-76
2023/12/30 05:19:45;;;;;;;19.27;4.97;;;;;;;5.21;100.00;101011.63;5002125;28;20036;-78
2023/12/30 05:22:11;;;;;;;14.48;4.13;;;;;;;5.17;100.00;101009.13;4984456;28;20041;-80
2023/12/30 05:24:36;;;;;;;19.05;4.20;;;;;;;5.17;100.00;101014.41;5000974;28;20121;-78
2023/12/30 05:27:01;;;;;;;17.90;4.55;;;;;;;5.18;100.00;101016.13;5001936;28;20118;-81
2023/12/30 05:29:28;;;;;;;17.50;5.25;;;;;;;5.21;100.00;101016.06;5000300;28;20037;-82
2023/12/30 05:31:53;;;;;;;17.40;4.38;;;;;;;5.17;100.00;101012.63;5000359;28;20038;-80
2023/12/30 05:34:18;;;;;;;18.88;4.65;;;;;;;5.18;100.00;101016.13;4986611;28;20452;-80
2023/12/30 05:36:44;;;;;;;18.77;4.32;;;;;;;5.21;100.00;101024.81;4997749;28;20093;-79
2023/12/30 05:39:09;;;;;;;14.15;3.97;;;;;;;5.21;100.00;101006.34;5002571;28;20080;-79
2023/12/30 05:41:34;;;;;;;18.38;4.82;;;;;;;5.22;100.00;101016.03;5002339;28;20040;-81
2023/12/30 05:44:00;;;;;;;22.83;4.85;;;;;;;5.19;100.00;101017.88;5000733;28;20046;-77
2023/12/30 05:46:26;;;;;;;18.67;4.47;;;;;;;5.18;100.00;101027.56;5001708;28;20049;-80
2023/12/30 05:48:52;;;;;;;16.92;4.35;;;;;;;5.18;100.00;101024.03;4985463;28;20125;-78
2023/12/30 05:51:18;;;;;;;22.17;4.70;;;;;;;5.20;100.00;101032.78;4999231;28;20080;-78
2023/12/30 05:53:43;;;;;;;17.73;4.38;;;;;;;5.18;100.00;101030.22;5007698;28;20037;-81
2023/12/30 05:56:08;;;;;;;18.23;4.18;;;;;;;5.11;100.00;101019.84;5002239;28;20052;-80
2023/12/30 05:58:34;;;;;;;14.52;3.80;;;;;;;5.15;100.00;101022.38;5000773;28;20435;-83
2023/12/30 06:01:01;;;;;;;14.35;3.97;;;;;;;5.04;100.00;101012.97;5000512;28;20064;-80
2023/12/30 06:03:27;;;;;;;17.33;4.45;;;;;;;5.04;100.00;101026.19;5005199;28;20034;-78
2023/12/30 06:05:52;;;;;;;12.60;3.60;;;;;;;5.02;100.00;101026.22;5005522;28;20033;-77
2023/12/30 06:08:18;;;;;;;14.80;3.80;;;;;;;4.90;100.00;101016.84;5006002;28;20042;-77
2023/12/30 06:10:45;;;;;;;18.92;4.60;;;;;;;4.97;100.00;101050.09;5001937;28;20046;-79
2023/12/30 06:13:11;;;;;;;14.07;3.65;;;;;;;4.98;100.00;101049.16;5008426;28;20120;-78
2023/12/30 06:15:36;;;;;;;18.42;4.15;;;;;;;5.00;100.00;101054.41;5009715;28;20061;-80
2023/12/30 06:18:02;;;;;;;15.45;4.10;;;;;;;4.93;100.00;101047.53;5010167;28;20239;-81
2023/12/30 06:20:27;;;;;;;14.52;3.97;;;;;;;4.96;100.00;101058.88;5007512;28;20065;-77
2023/12/30 06:22:52;;;;;;;15.35;4.18;;;;;;;5.00;100.00;101057.03;5006389;28;20042;-79
2023/12/30 06:25:18;;;;;;;12.15;3.78;;;;;;;4.96;100.00;101058.88;5006337;28;20050;-75
2023/12/30 06:27:43;;;;;;;17.67;4.80;;;;;;;4.95;100.00;101062.44;5008406;28;20030;-79
2023/12/30 06:30:09;;;;;;;16.55;3.88;;;;;;;4.90;100.00;101047.63;5007029;28;20046;-79
2023/12/30 06:32:34;;;;;;;16.88;4.07;;;;;;;4.97;100.00;101063.28;5008583;28;20551;-79
2023/12/30 06:35:00;;;;;;;16.83;4.07;;;;;;;5.02;100.00;101078.97;5009223;28;20053;-78
2023/12/30 06:37:25;;;;;;;13.18;3.50;;;;;;;4.98;100.00;101086.09;5007701;28;20124;-82
2023/12/30 06:39:50;;;;;;;12.90;3.80;;;;;;;4.92;100.00;101074.81;5012420;28;20029;-83
2023/12/30 06:42:16;;;;;;;16.85;4.55;;;;;;;4.81;100.00;101059.25;5009316;28;20037;-80
2023/12/30 06:44:41;;;;;;;14.90;3.70;;;;;;;4.88;100.00;101074.00;5003999;28;20121;-80
2023/12/30 06:47:06;;;;;;;14.30;3.97;;;;;;;4.95;100.00;101075.63;5004371;28;20136;-81
2023/12/30 06:49:32;;;;;;;15.63;4.65;;;;;;;4.96;100.00;101074.69;4986470;28;20088;-80
2023/12/30 06:51:57;;;;;;;17.98;3.55;;;;;;;5.01;100.00;101074.59;5004626;28;20073;-77
2023/12/30 06:54:23;;;;;;;18.45;4.05;;;;;;;5.07;100.00;101070.97;5004973;28;20038;-81
2023/12/30 06:56:49;;;;;;;14.68;3.97;;;;;;;5.05;100.00;101067.47;5001544;28;20239;-75
2023/12/30 06:59:15;;;;;;;14.80;3.72;;;;;;;5.08;100.00;101072.69;4998143;28;20137;-79
2023/12/30 07:01:41;;;;;;;16.50;4.10;;;;;;;5.06;100.00;101070.09;4999257;28;20053;-80
2023/12/30 07:04:07;;;;;;;14.65;4.10;;;;;;;4.99;100.00;101069.34;5005126;28;20290;-78
2023/12/30 07:06:32;;;;;;;14.73;4.20;;;;;;;4.92;100.00;101062.50;5003683;28;20044;-77
2023/12/30 07:08:57;;;;;;;15.90;3.88;;;;;;;4.90;100.00;101066.94;5004652;28;20033;-81
2023/12/30 07:11:23;;;;;;;16.17;4.18;;;;;;;4.87;100.00;101077.56;5004098;28;20042;-75
2023/12/30 07:13:48;;;;;;;17.08;4.35;;;;;;;4.87;100.00;101080.19;5000244;28;20042;-78
2023/12/30 07:16:15;;;;;;;16.13;4.15;;;;;;;4.84;100.00;101072.34;5005179;28;20038;-77
2023/12/30 07:18:41;;;;;;;23.13;4.75;;;;;;;4.87;100.00;101076.69;5009632;28;20057;-79
2023/12/30 07:21:06;;;;;;;20.98;4.15;;;;;;;4.86;100.00;101094.31;5010775;28;20041;-76
2023/12/30 07:23:31;;;;;;;18.75;4.43;;;;;;;4.87;100.00;101090.75;5005075;28;20129;-78
2023/12/30 07:25:57;;;;;;;17.50;3.97;;;;;;;4.88;100.00;101088.97;5004399;28;20053;-79
2023/12/30 07:28:22;;;;;;;17.98;4.25;;;;;;;4.90;100.00;101095.09;5002356;28;20042;-77
2023/12/30 07:30:50;;;;;;;15.75;4.07;;;;;;;4.86;100.00;101104.00;5001935;28;20047;-77
2023/12/30 07:33:15;;;;;;;18.00;4.22;;;;;;;4.83;100.00;101088.22;5005859;28;20038;-80
2023/12/30 07:35:41;;;;;;;10.90;3.65;;;;;;;4.87;100.00;101090.75;5003923;28;20037;-77
2023/12/30 07:38:06;;;;;;;20.00;4.15;;;;;;;4.91;100.00;101091.56;5001655;28;20052;-78
2023/12/30 07:40:32;;;;;;;16.30;4.10;;;;;;;4.91;100.00;101092.41;5004130;28;20224;-80
2023/12/30 07:42:57;;;;;;;19.13;4.43;;;;;;;4.75;100.00;101072.56;5004872;28;20488;-78
2023/12/30 07:45:22;;;;;;;15.63;4.03;;;;;;;4.88;100.00;101081.94;5004190;28;20112;-77
2023/12/30 07:47:48;;;;;;;16.67;3.97;;;;;;;4.88;100.00;101097.75;5007975;28;20081;-75
2023/12/30 07:50:14;;;;;;;17.35;4.43;;;;;;;4.84;100.00;101100.50;5006019;28;20044;-81
2023/12/30 07:52:39;;;;;;;17.80;4.32;;;;;;;4.84;100.00;101109.28;5010186;28;20037;-80
2023/12/30 07:55:05;;;;;;;14.65;4.93;;;;;;;4.82;100.00;101108.47;5008505;28;20590;-79
2023/12/30 07:57:30;;;;;;;15.52;4.30;;;;;;;4.81;100.00;101105.84;5003423;28;20065;-76
2023/12/30 07:59:55;;;;;;;15.23;4.18;;;;;;;4.85;100.00;101113.69;4999375;28;20584;-75
2023/12/30 08:02:21;;;;;;;13.00;4.65;;;;;;;4.86;100.00;101122.44;4985638;28;20555;-81
2023/12/30 08:04:46;;;;;;;13.75;4.63;;;;;;;4.85;100.00;101118.94;4998517;28;20041;-79
2023/12/30 08:07:11;;;;;;;15.18;4.82;;;;;;;4.86;100.00;101125.09;5004964;28;20120;-80
2023/12/30 08:09:37;;;;;;;14.80;4.30;;;;;;;4.88;100.00;101129.41;5006466;28;20261;-82
2023/12/30 08:12:03;;;;;;;20.10;5.05;;;;;;;4.86;100.00;101125.94;4988415;28;20405;-79
2023/12/30 08:14:29;;;;;;;17.08;5.38;;;;;;;4.95;100.00;101128.38;5002859;28;20057;-81
2023/12/30 08:16:54;;;;;;;14.70;4.50;;;;;;;5.03;100.00;101144.03;5004788;28;20237;-77
2023/12/30 08:19:20;;;;;;;18.48;5.43;;;;;;;5.08;100.00;101130.72;5004627;28;20053;-75
2023/12/30 08:21:45;;;;;;;16.60;4.43;;;;;;;5.13;100.00;101126.19;4975352;28;20125;-75
2023/12/30 08:24:14;;;;;;;16.33;5.25;;;;;;;5.19;100.00;101136.63;5002910;28;20034;-76
2023/12/30 08:26:39;;;;;;;15.80;5.40;;;;;;;5.24;100.00;101129.47;4997584;28;20041;-78
2023/12/30 08:29:08;;;;;;;13.20;4.97;;;;;;;5.29;100.00;101129.34;4999474;28;20060;-81
2023/12/30 08:31:35;;;;;;;18.20;4.82;;;;;;;5.34;100.00;101128.31;5003368;28;20522;-78
2023/12/30 08:34:00;;;;;;;17.15;5.18;;;;;;;5.38;100.00;101131.75;5004222;28;20088;-75
2023/12/30 08:36:28;;;;;;;18.02;5.28;;;;;;;5.43;100.00;101133.38;4999734;28;20046;-77
2023/12/30 08:38:53;;;;;;;15.75;5.45;;;;;;;5.49;100.00;101130.59;5002357;28;20476;-79
2023/12/30 08:41:24;;;;;;;18.73;5.88;;;;;;;5.54;100.00;101141.03;4977750;28;20065;-76
2023/12/30 08:43:52;;;;;;;16.35;4.72;;;;;;;5.57;100.00;101148.88;5002478;28;20038;-76
2023/12/30 08:46:20;;;;;;;15.38;4.68;;;;;;;5.54;100.00;101121.69;4998382;28;20034;-74
2023/12/30 08:48:45;;;;;;;18.00;5.50;;;;;;;5.60;100.00;101132.97;5002174;28;20063;-77
2023/12/30 08:51:14;;;;;;;16.35;5.40;;;;;;;5.63;100.00;101129.34;5002659;28;20067;-77
2023/12/30 08:53:39;;;;;;;19.58;5.38;;;;;;;5.65;100.00;101123.13;5009552;28;20399;-74
2023/12/30 08:56:06;;;;;;;13.82;4.70;;;;;;;5.67;100.00;101123.09;5001074;28;20041;-79
2023/12/30 08:58:31;;;;;;;19.45;4.95;;;;;;;5.76;100.00;101136.03;4999840;28;20053;-77
2023/12/30 09:00:57;;;;;;;15.93;5.18;;;;;;;5.82;100.00;101142.97;4997942;28;20037;-78
2023/12/30 09:03:22;;;;;;;18.83;6.38;;;;;;;5.75;100.00;101121.13;5000452;28;20038;-78
2023/12/30 09:05:48;;;;;;;19.85;6.07;;;;;;;5.88;100.00;101142.78;5002153;28;20033;-75
2023/12/30 09:08:14;;;;;;;16.80;5.03;;;;;;;5.93;100.00;101128.56;5002144;28;20038;-76
2023/12/30 09:10:39;;;;;;;18.98;5.68;;;;;;;6.02;100.00;101135.41;4977312;28;20113;-75
2023/12/30 09:13:05;;;;;;;17.38;5.15;;;;;;;6.07;100.00;101140.56;5002795;28;20631;-78
2023/12/30 09:15:30;;;;;;;15.43;5.00;;;;;;;6.13;100.00;101149.16;5001252;28;20033;-77
2023/12/30 09:17:57;;;;;;;16.63;5.13;;;;;;;6.12;100.00;101143.94;5004414;28;20053;-77
2023/12/30 09:20:24;;;;;;;17.92;5.22;;;;;;;6.17;100.00;101145.53;5003161;28;20030;-77
2023/12/30 09:22:49;;;;;;;16.98;5.47;;;;;;;6.24;100.00;101159.47;5002863;28;20050;-79
2023/12/30 09:25:15;;;;;;;15.52;4.97;;;;;;;6.26;100.00;101169.97;5003553;28;20069;-75
2023/12/30 09:27:40;;;;;;;14.40;5.15;;;;;;;6.23;100.00;101155.09;5001776;28;20048;-75
2023/12/30 09:30:06;;;;;;;13.15;5.40;;;;;;;6.23;100.00;101168.31;4996397;28;20030;-76
2023/12/30 09:32:31;;;;;;;18.77;6.25;;;;;;;6.27;100.00;101175.25;5001792;28;20037;-73
2023/12/30 09:34:57;;;;;;;20.40;6.53;;;;;;;6.30;100.00;101176.91;4997775;28;20033;-76
2023/12/30 09:37:22;;;;;;;15.98;6.32;;;;;;;6.30;100.00;101161.06;5001895;28;20504;-73
2023/12/30 09:39:51;;;;;;;16.25;5.95;;;;;;;6.41;100.00;101172.19;5001126;28;20040;-73
2023/12/30 09:42:16;;;;;;;23.38;7.03;;;;;;;6.53;100.00;101169.22;5002243;28;20060;-74
2023/12/30 09:44:42;;;;;;;19.98;5.82;;;;;;;6.64;100.00;101168.88;5000520;28;20042;-76
2023/12/30 09:47:10;;;;;;;20.10;6.30;;;;;;;6.72;100.00;101169.53;5001083;28;20069;-75
2023/12/30 09:49:36;;;;;;;17.75;6.18;;;;;;;6.73;100.00;101172.13;4998658;28;20034;-75
2023/12/30 09:52:06;;;;;;;17.63;6.13;;;;;;;6.80;100.00;101182.53;5001450;28;20562;-75
2023/12/30 09:54:35;;;;;;;18.42;6.32;;;;;;;6.81;100.00;101179.81;5000165;28;20038;-76
2023/12/30 09:57:05;;;;;;;14.93;5.63;;;;;;;6.85;100.00;101178.81;5000416;28;20222;-75
2023/12/30 09:59:35;;;;;;;23.25;6.22;;;;;;;6.90;100.00;101174.28;4994215;28;20042;-74
2023/12/30 10:02:01;;;;;;;20.55;6.90;;;;;;;6.96;100.00;101174.06;4998098;28;20037;-74
2023/12/30 10:04:26;;;;;;;15.50;5.72;;;;;;;7.05;100.00;101164.13;4976683;28;20038;-73
2023/12/30 10:06:55;;;;;;;17.63;6.47;;;;;;;7.03;100.00;101174.78;5000148;28;20041;-75
2023/12/30 10:09:22;;;;;;;18.25;6.05;;;;;;;7.01;100.00;101173.06;4993738;28;20030;-74
2023/12/30 10:11:49;;;;;;;13.85;5.57;;;;;;;6.97;100.00;101170.50;4979870;28;20635;-73
2023/12/30 10:14:14;;;;;;;17.85;5.75;;;;;;;6.98;100.00;101169.63;4999862;28;20050;-75
2023/12/30 10:16:40;;;;;;;16.75;6.38;;;;;;;6.96;100.00;101166.13;4999566;28;20034;-78
2023/12/30 10:19:16;;;;;;;15.02;5.40;;;;;;;6.99;100.00;101171.34;4983317;28;20516;-74
2023/12/30 10:21:42;;;;;;;16.80;6.07;;;;;;;7.02;100.00;101185.38;4994521;28;20061;-73
2023/12/30 10:24:07;;;;;;;15.77;6.05;;;;;;;6.99;100.00;101173.13;4998643;28;20635;-76
2023/12/30 10:26:37;;;;;;;16.23;7.07;;;;;;;6.94;100.00;101175.91;4995043;28;20057;-78
2023/12/30 10:29:06;;;;;;;17.65;7.20;;;;;;;7.05;100.00;101180.00;4993172;28;20400;-74
2023/12/30 10:31:32;;;;;;;23.25;7.43;;;;;;;7.06;100.00;101168.50;4998677;28;20041;-73
2023/12/30 10:33:57;;;;;;;15.27;5.82;;;;;;;7.09;100.00;101177.22;5000936;28;20079;-78
2023/12/30 10:36:26;;;;;;;21.02;7.45;;;;;;;7.11;100.00;101179.81;4999125;28;20073;-74
2023/12/30 10:38:52;;;;;;;19.27;7.93;;;;;;;7.11;100.00;101169.25;4998006;28;20042;-76
2023/12/30 10:41:18;;;;;;;19.10;7.68;;;;;;;7.19;100.00;101173.38;5000412;28;20084;-74
2023/12/30 10:43:43;;;;;;;19.98;7.45;;;;;;;7.20;100.00;101175.09;5000044;28;20053;-77
2023/12/30 10:46:11;;;;;;;18.20;7.50;;;;;;;7.26;100.00;101186.41;5000426;28;20054;-74
2023/12/30 10:48:46;;;;;;;25.85;7.63;;;;;;;7.26;100.00;101173.16;4998986;28;20609;-74
2023/12/30 10:51:14;;;;;;;22.38;7.97;;;;;;;7.37;100.00;101187.81;4985210;28;20073;-74
2023/12/30 10:53:44;;;;;;;18.30;7.68;;;;;;;7.40;100.00;101181.56;4981966;28;20045;-76
2023/12/30 10:56:16;;;;;;;21.20;8.13;;;;;;;7.41;100.00;101186.78;4998449;28;20038;-79
2023/12/30 10:58:43;;;;;;;19.25;7.97;;;;;;;7.39;100.00;101170.06;4999638;28;20565;-73
2023/12/30 11:01:09;;;;;;;22.02;8.32;;;;;;;7.45;100.00;101180.47;4982624;28;20483;-75
2023/12/30 11:03:35;;;;;;;16.70;7.60;;;;;;;7.43;100.00;101149.66;5001995;28;20045;-77
2023/12/30 11:06:26;;;;;;;21.30;7.95;;;;;;;7.51;100.00;101155.56;4987389;28;20069;-74
2023/12/30 11:08:53;;;;;;;17.50;7.55;;;;;;;7.58;100.00;101164.19;5002289;28;20033;-76
2023/12/30 11:11:19;;;;;;;19.95;8.13;;;;;;;7.62;100.00;101160.50;4985490;28;20049;-77